createdAt,value
2023-03-11T00:02:09.809Z,61.11
2023-03-11T00:04:55.564Z,61.38
2023-03-11T00:07:41.706Z,61.23
2023-03-11T00:10:31.252Z,61.42
2023-03-11T00:13:17.204Z,61.35
2023-03-11T00:16:03.100Z,61.21
2023-03-11T00:18:51.634Z,61.32
2023-03-11T00:21:37.324Z,61.37
2023-03-11T00:24:22.940Z,61.47
2023-03-11T00:27:08.434Z,62.06
2023-03-11T00:29:53.638Z,62.22
2023-03-11T00:32:39.802Z,62.32
2023-03-11T00:35:29.623Z,62.90
2023-03-11T00:38:17.408Z,62.24
2023-03-11T00:41:03.717Z,62.70
2023-03-11T00:43:50.113Z,62.91
2023-03-11T00:46:35.680Z,62.43
2023-03-11T00:49:20.936Z,61.77
2023-03-11T00:52:06.790Z,62.21
2023-03-11T00:54:52.243Z,62.08
2023-03-11T00:57:40.081Z,61.96
2023-03-11T01:00:27.748Z,62.17
2023-03-11T01:03:14.296Z,62.13
2023-03-11T01:05:59.763Z,61.38
2023-03-11T01:08:45.528Z,61.70
2023-03-11T01:11:31.545Z,61.73
2023-03-11T01:14:16.840Z,62.09
2023-03-11T01:17:03.242Z,62.08
2023-03-11T01:19:49.553Z,61.78
2023-03-11T01:22:34.898Z,61.73
2023-03-11T01:25:22.690Z,61.84
2023-03-11T01:28:10.554Z,61.95
2023-03-11T01:30:55.968Z,61.58
2023-03-11T01:33:41.553Z,61.67
2023-03-11T01:36:27.082Z,61.29
2023-03-11T01:39:12.467Z,61.42
2023-03-11T01:41:58.201Z,61.02
2023-03-11T01:44:43.510Z,61.37
2023-03-11T01:47:37.881Z,61.50
2023-03-11T01:50:27.295Z,61.47
2023-03-11T01:53:15.763Z,61.87
2023-03-11T01:56:03.867Z,62.09
2023-03-11T01:58:52.613Z,61.83
2023-03-11T02:01:46.817Z,62.12
2023-03-11T02:04:34.815Z,61.75
2023-03-11T02:07:20.424Z,61.84
2023-03-11T02:10:12.243Z,61.78
2023-03-11T02:12:57.954Z,62.26
2023-03-11T02:15:47.243Z,61.91
2023-03-11T02:18:33.749Z,61.85
2023-03-11T02:21:29.221Z,61.53
2023-03-11T02:24:30.965Z,61.21
2023-03-11T02:27:19.359Z,61.35
2023-03-11T02:30:08.427Z,61.36
2023-03-11T02:32:57.555Z,61.22
2023-03-11T02:35:43.717Z,61.16
2023-03-11T02:38:29.569Z,61.23
2023-03-11T02:41:20.316Z,61.38
2023-03-11T02:44:11.867Z,61.51
2023-03-11T02:46:58.382Z,61.44
2023-03-11T02:49:44.461Z,61.39
2023-03-11T02:52:34.138Z,61.77
2023-03-11T02:55:20.675Z,61.87
2023-03-11T02:58:05.866Z,62.08
2023-03-11T03:00:51.437Z,61.73
2023-03-11T03:03:38.009Z,61.52
2023-03-11T03:06:25.027Z,61.92
2023-03-11T03:09:11.832Z,61.57
2023-03-11T03:11:58.036Z,62.46
2023-03-11T03:14:43.525Z,62.49
2023-03-11T03:17:30.388Z,62.19
2023-03-11T03:20:16.162Z,62.26
2023-03-11T03:23:06.769Z,62.36
2023-03-11T03:25:52.351Z,62.61
2023-03-11T03:28:38.209Z,62.42
2023-03-11T03:31:25.363Z,63.01
2023-03-11T03:34:11.377Z,62.85
2023-03-11T03:36:56.749Z,62.49
2023-03-11T03:39:42.240Z,62.51
2023-03-11T03:42:30.075Z,62.47
2023-03-11T03:45:15.813Z,62.71
2023-03-11T03:48:01.781Z,62.48
2023-03-11T03:50:50.749Z,62.90
2023-03-11T03:53:37.228Z,63.03
2023-03-11T03:56:22.572Z,63.49
2023-03-11T03:59:08.109Z,63.01
2023-03-11T04:01:59.661Z,63.27
2023-03-11T04:04:47.971Z,63.06
2023-03-11T04:07:35.894Z,63.42
2023-03-11T04:10:23.601Z,63.20
2023-03-11T04:13:09.791Z,63.64
2023-03-11T04:15:55.610Z,63.48
2023-03-11T04:18:41.673Z,63.49
2023-03-11T04:21:28.180Z,64.00
2023-03-11T04:24:16.211Z,64.11
2023-03-11T04:27:02.046Z,63.90
2023-03-11T04:29:43.100Z,63.97
2023-03-11T04:32:29.817Z,63.88
2023-03-11T04:35:15.973Z,64.25
2023-03-11T04:38:02.074Z,64.06
2023-03-11T04:40:48.743Z,64.51
2023-03-11T04:43:34.787Z,64.74
2023-03-11T04:46:20.327Z,64.76
2023-03-11T04:49:06.779Z,65.25
2023-03-11T04:51:52.058Z,65.31
2023-03-11T04:54:40.328Z,65.00
2023-03-11T04:57:25.785Z,65.76
2023-03-11T05:00:15.791Z,66.28
2023-03-11T05:03:05.877Z,66.59
2023-03-11T05:05:54.855Z,66.67
2023-03-11T05:08:40.617Z,66.85
2023-03-11T05:11:26.498Z,66.61
2023-03-11T05:14:12.009Z,67.05
2023-03-11T05:16:58.349Z,67.08
2023-03-11T05:19:44.243Z,67.71
2023-03-11T05:22:38.699Z,67.95
2023-03-11T05:25:25.157Z,68.03
2023-03-11T05:28:10.642Z,68.37
2023-03-11T05:31:01.709Z,68.20
2023-03-11T05:33:50.382Z,68.47
2023-03-11T05:36:35.733Z,68.92
2023-03-11T05:39:21.649Z,69.54
2023-03-11T05:42:08.244Z,69.42
2023-03-11T05:44:54.506Z,69.96
2023-03-11T05:47:42.551Z,70.29
2023-03-11T05:50:30.317Z,70.10
2023-03-11T05:53:16.400Z,70.63
2023-03-11T05:56:01.983Z,71.43
2023-03-11T05:58:49.165Z,71.09
2023-03-11T06:01:36.097Z,71.43
2023-03-11T06:04:21.986Z,71.42
2023-03-11T06:07:08.285Z,72.10
2023-03-11T06:09:57.291Z,72.02
2023-03-11T06:12:42.578Z,72.15
2023-03-11T06:15:38.150Z,72.61
2023-03-11T06:18:26.572Z,71.89
2023-03-11T06:21:23.958Z,72.03
2023-03-11T06:24:09.411Z,72.41
2023-03-11T06:26:55.875Z,71.97
2023-03-11T06:29:43.881Z,72.34
2023-03-11T06:32:30.718Z,72.52
2023-03-11T06:35:16.146Z,72.80
2023-03-11T06:38:01.691Z,72.54
2023-03-11T06:40:47.485Z,72.77
2023-03-11T06:43:34.746Z,72.65
2023-03-11T06:46:22.867Z,73.34
2023-03-11T06:49:10.249Z,73.54
2023-03-11T06:51:58.127Z,73.54
2023-03-11T06:54:44.343Z,73.88
2023-03-11T06:57:31.708Z,73.95
2023-03-11T07:00:20.748Z,74.67
2023-03-11T07:03:12.004Z,74.89
2023-03-11T07:05:58.604Z,74.44
2023-03-11T07:08:44.245Z,74.54
2023-03-11T07:11:30.854Z,74.98
2023-03-11T07:14:23.864Z,74.50
2023-03-11T07:17:13.148Z,75.07
2023-03-11T07:20:07.354Z,74.83
2023-03-11T07:22:53.487Z,75.16
2023-03-11T07:25:39.181Z,75.19
2023-03-11T07:28:26.486Z,75.65
2023-03-11T07:31:17.935Z,76.52
2023-03-11T07:34:11.135Z,77.35
2023-03-11T07:36:56.899Z,78.03
2023-03-11T07:39:42.656Z,79.61
2023-03-11T07:42:28.627Z,80.03
2023-03-11T07:45:14.228Z,80.84
2023-03-11T07:47:59.409Z,80.69
2023-03-11T07:50:44.745Z,81.25
2023-03-11T07:53:30.058Z,80.63
2023-03-11T07:56:17.599Z,81.19
2023-03-11T07:59:04.985Z,80.63
2023-03-11T08:01:50.747Z,81.02
2023-03-11T08:04:36.142Z,81.13
2023-03-11T08:07:21.585Z,80.94
2023-03-11T08:10:07.342Z,80.77
2023-03-11T08:12:52.961Z,80.96
2023-03-11T08:15:38.524Z,80.90
2023-03-11T08:18:25.769Z,81.06
2023-03-11T08:21:14.732Z,81.24
2023-03-11T08:24:01.928Z,80.67
2023-03-11T08:26:49.220Z,80.37
2023-03-11T08:29:35.318Z,81.01
2023-03-11T08:32:20.980Z,81.02
2023-03-11T08:35:07.115Z,81.40
2023-03-11T08:37:53.125Z,81.30
2023-03-11T08:40:38.901Z,81.15
2023-03-11T08:43:24.286Z,80.59
2023-03-11T08:46:15.883Z,80.63
2023-03-11T08:49:02.452Z,80.82
2023-03-11T08:51:48.210Z,80.92
2023-03-11T08:54:33.555Z,80.94
2023-03-11T08:57:19.441Z,80.81
2023-03-11T09:00:07.315Z,80.48
2023-03-11T09:02:52.926Z,80.26
2023-03-11T09:05:38.807Z,79.57
2023-03-11T09:08:24.393Z,79.56
2023-03-11T09:11:10.657Z,78.71
2023-03-11T09:13:56.033Z,79.03
2023-03-11T09:16:41.390Z,79.91
2023-03-11T09:19:27.189Z,79.75
2023-03-11T09:22:13.331Z,79.74
2023-03-11T09:24:59.175Z,79.70
2023-03-11T09:27:44.490Z,79.89
2023-03-11T09:30:30.142Z,79.99
2023-03-11T09:33:15.676Z,80.21
2023-03-11T09:36:01.874Z,80.14
2023-03-11T09:38:48.210Z,79.80
2023-03-11T09:41:58.794Z,80.19
2023-03-11T09:45:17.598Z,80.01
2023-03-11T09:48:32.471Z,80.40
2023-03-11T09:51:27.565Z,79.48
2023-03-11T09:54:13.995Z,79.67
2023-03-11T09:57:03.094Z,79.76
2023-03-11T09:59:49.391Z,79.74
2023-03-11T10:02:37.192Z,79.35
2023-03-11T10:05:28.727Z,79.02
2023-03-11T10:08:24.025Z,79.25
2023-03-11T10:11:37.409Z,79.10
2023-03-11T10:14:40.137Z,79.60
2023-03-11T10:17:31.648Z,77.32
2023-03-11T10:20:47.970Z,76.64
2023-03-11T10:23:46.811Z,75.56
2023-03-11T10:26:37.328Z,76.62
2023-03-11T10:29:29.813Z,76.03
2023-03-11T10:32:30.007Z,75.66
2023-03-11T10:35:17.359Z,76.55
2023-03-11T10:38:14.966Z,76.66
2023-03-11T10:41:06.561Z,77.25
2023-03-11T10:44:06.604Z,77.25
2023-03-11T10:46:52.226Z,77.19
2023-03-11T10:49:37.682Z,78.04
2023-03-11T10:52:23.164Z,77.79
2023-03-11T10:55:08.991Z,78.36
2023-03-11T10:58:05.260Z,78.80
2023-03-11T11:01:07.802Z,78.54
2023-03-11T11:03:56.145Z,78.60
2023-03-11T11:06:41.649Z,77.91
2023-03-11T11:09:31.244Z,77.89
2023-03-11T11:12:20.038Z,77.96
2023-03-11T11:15:07.437Z,77.45
2023-03-11T11:17:56.816Z,76.87
2023-03-11T11:20:56.564Z,75.95
2023-03-11T11:23:46.937Z,75.53
2023-03-11T11:26:33.237Z,75.09
2023-03-11T11:29:19.057Z,75.79
2023-03-11T11:32:19.616Z,75.53
2023-03-11T11:35:12.206Z,76.05
2023-03-11T11:38:04.310Z,75.38
2023-03-11T11:40:51.510Z,75.01
2023-03-11T11:43:55.628Z,75.41
2023-03-11T11:46:47.436Z,74.68
2023-03-11T11:49:35.538Z,74.96
2023-03-11T11:52:30.646Z,75.25
2023-03-11T11:55:25.272Z,76.32
2023-03-11T11:58:14.627Z,76.98
2023-03-11T12:01:28.193Z,77.02
2023-03-11T12:04:45.733Z,77.36
2023-03-11T12:07:55.622Z,77.82
2023-03-11T12:10:45.185Z,77.79
2023-03-11T12:14:08.532Z,77.99
2023-03-11T12:17:04.221Z,76.89
2023-03-11T12:19:58.114Z,76.79
2023-03-11T12:23:11.753Z,76.25
2023-03-11T12:26:19.312Z,75.69
2023-03-11T12:29:17.379Z,75.42
2023-03-11T12:32:03.730Z,75.46
2023-03-11T12:34:49.570Z,74.90
2023-03-11T12:37:35.809Z,75.41
2023-03-11T12:40:43.911Z,75.19
2023-03-11T12:43:35.393Z,75.27
2023-03-11T12:46:21.808Z,74.78
2023-03-11T12:49:15.007Z,74.67
2023-03-11T12:52:15.924Z,75.04
2023-03-11T12:55:01.543Z,75.43
2023-03-11T12:57:47.248Z,75.26
2023-03-11T13:00:38.625Z,76.19
2023-03-11T13:03:39.282Z,76.05
2023-03-11T13:06:40.059Z,76.61
2023-03-11T13:09:25.782Z,76.31
2023-03-11T13:12:53.687Z,75.92
2023-03-11T13:15:41.635Z,75.67
2023-03-11T13:18:30.381Z,75.10
2023-03-11T13:21:28.050Z,74.37
2023-03-11T13:24:19.517Z,73.99
2023-03-11T13:27:22.882Z,73.71
2023-03-11T13:30:34.871Z,73.00
2023-03-11T13:33:29.689Z,73.51
2023-03-11T13:36:30.016Z,73.02
2023-03-11T13:39:26.242Z,74.41
2023-03-11T13:42:24.265Z,75.05
2023-03-11T13:45:26.279Z,75.00
2023-03-11T13:48:17.469Z,74.81
2023-03-11T13:51:16.410Z,75.14
2023-03-11T13:54:09.225Z,74.82
2023-03-11T13:56:58.620Z,75.29
2023-03-11T13:59:44.370Z,75.22
2023-03-11T14:02:29.830Z,75.44
2023-03-11T14:05:27.127Z,75.65
2023-03-11T14:08:27.348Z,75.88
2023-03-11T14:11:17.602Z,75.80
2023-03-11T14:14:38.178Z,75.50
2023-03-11T14:17:23.945Z,75.53
2023-03-11T14:20:22.498Z,75.73
2023-03-11T14:23:18.648Z,75.27
2023-03-11T14:26:12.810Z,75.92
2023-03-11T14:29:01.276Z,76.60
2023-03-11T14:31:47.856Z,75.94
2023-03-11T14:34:40.515Z,76.00
2023-03-11T14:37:38.644Z,75.94
2023-03-11T14:40:41.923Z,76.12
2023-03-11T14:43:37.201Z,76.08
2023-03-11T14:46:27.815Z,75.91
2023-03-11T14:49:20.923Z,75.48
2023-03-11T14:52:15.898Z,75.32
2023-03-11T14:55:10.990Z,75.65
2023-03-11T14:58:05.968Z,75.69
2023-03-11T15:01:18.713Z,75.38
2023-03-11T15:04:04.244Z,76.09
2023-03-11T15:06:50.474Z,75.11
2023-03-11T15:09:40.183Z,75.42
2023-03-11T15:12:43.220Z,76.00
2023-03-11T15:15:29.941Z,74.72
2023-03-11T15:18:23.224Z,74.68
2023-03-11T15:21:20.927Z,74.16
2023-03-11T15:24:07.245Z,74.00
2023-03-11T15:26:54.481Z,74.28
2023-03-11T15:29:40.296Z,73.81
2023-03-11T15:32:39.104Z,73.23
2023-03-11T15:35:30.438Z,73.77
2023-03-11T15:38:25.924Z,73.72
2023-03-11T15:41:12.608Z,74.30
2023-03-11T15:44:02.070Z,74.66
2023-03-11T15:46:47.751Z,74.47
2023-03-11T15:49:33.960Z,74.61
2023-03-11T15:52:20.254Z,73.99
2023-03-11T15:55:06.596Z,73.82
2023-03-11T15:58:06.182Z,73.42
2023-03-11T16:00:56.501Z,72.86
2023-03-11T16:03:44.850Z,72.71
2023-03-11T16:06:30.244Z,73.02
2023-03-11T16:09:16.223Z,73.46
2023-03-11T16:12:02.043Z,73.98
2023-03-11T16:14:49.240Z,74.50
2023-03-11T16:17:48.941Z,74.69
2023-03-11T16:20:43.864Z,74.56
2023-03-11T16:23:50.148Z,74.70
2023-03-11T16:26:36.642Z,74.94
2023-03-11T16:29:23.642Z,75.27
2023-03-11T16:32:10.630Z,75.15
2023-03-11T16:34:57.245Z,75.40
2023-03-11T16:37:43.688Z,75.06
2023-03-11T16:40:29.972Z,74.61
2023-03-11T16:43:15.480Z,74.63
2023-03-11T16:46:01.120Z,74.11
2023-03-11T16:48:46.763Z,74.20
2023-03-11T16:51:33.171Z,74.11
2023-03-11T16:54:18.709Z,74.06
2023-03-11T16:57:04.562Z,74.01
2023-03-11T16:59:49.918Z,74.12
2023-03-11T17:02:36.684Z,73.63
2023-03-11T17:05:23.122Z,73.64
2023-03-11T17:08:09.506Z,73.39
2023-03-11T17:10:55.271Z,74.11
2023-03-11T17:13:40.798Z,74.07
2023-03-11T17:16:26.171Z,74.38
2023-03-11T17:19:11.664Z,74.23
2023-03-11T17:21:57.750Z,73.89
2023-03-11T17:24:43.329Z,74.24
2023-03-11T17:27:32.436Z,74.68
2023-03-11T17:30:30.559Z,74.37
2023-03-11T17:33:21.106Z,74.52
2023-03-11T17:36:08.501Z,74.92
2023-03-11T17:38:54.949Z,74.76
2023-03-11T17:41:41.084Z,74.96
2023-03-11T17:44:27.028Z,75.43
2023-03-11T17:47:12.761Z,74.85
2023-03-11T17:49:58.149Z,76.05
2023-03-11T17:52:45.650Z,75.79
2023-03-11T17:55:31.690Z,75.95
2023-03-11T17:58:17.075Z,75.95
2023-03-11T18:01:04.823Z,75.53
2023-03-11T18:03:50.658Z,75.59
2023-03-11T18:06:36.643Z,76.11
2023-03-11T18:09:22.558Z,76.57
2023-03-11T18:12:08.139Z,77.15
2023-03-11T18:14:53.462Z,77.19
2023-03-11T18:17:38.724Z,77.41
2023-03-11T18:20:24.334Z,77.18
2023-03-11T18:23:09.574Z,77.04
2023-03-11T18:25:55.250Z,77.83
2023-03-11T18:28:41.764Z,78.09
2023-03-11T18:31:29.632Z,78.15
2023-03-11T18:34:15.131Z,77.85
2023-03-11T18:37:01.963Z,78.29
2023-03-11T18:39:47.805Z,77.59
2023-03-11T18:42:33.713Z,77.26
2023-03-11T18:45:19.531Z,78.10
2023-03-11T18:48:05.876Z,77.67
2023-03-11T18:50:55.492Z,78.89
2023-03-11T18:53:42.955Z,78.19
2023-03-11T18:56:32.391Z,74.38
2023-03-11T18:59:18.056Z,75.15
2023-03-11T19:02:03.495Z,75.55
2023-03-11T19:04:49.098Z,75.27
2023-03-11T19:07:34.753Z,75.56
2023-03-11T19:10:20.423Z,75.40
2023-03-11T19:13:05.862Z,76.15
2023-03-11T19:15:52.210Z,76.26
2023-03-11T19:18:38.880Z,75.76
2023-03-11T19:21:26.180Z,75.87
2023-03-11T19:24:12.698Z,77.37
2023-03-11T19:26:58.440Z,76.42
2023-03-11T19:29:44.499Z,77.12
2023-03-11T19:32:30.004Z,77.06
2023-03-11T19:35:17.240Z,77.79
2023-03-11T19:38:03.175Z,78.03
2023-03-11T19:41:18.673Z,77.72
2023-03-11T19:44:04.569Z,76.62
2023-03-11T19:46:50.487Z,76.69
2023-03-11T19:49:36.867Z,75.34
2023-03-11T19:52:23.688Z,74.65
2023-03-11T19:55:09.568Z,73.79
2023-03-11T19:57:55.024Z,73.93
2023-03-11T20:00:42.055Z,73.90
2023-03-11T20:03:28.791Z,74.19
2023-03-11T20:06:16.556Z,74.65
2023-03-11T20:09:02.227Z,74.66
2023-03-11T20:11:47.889Z,75.03
2023-03-11T20:14:33.191Z,74.98
2023-03-11T20:17:18.637Z,74.99
2023-03-11T20:20:04.667Z,74.69
2023-03-11T20:22:50.352Z,74.47
2023-03-11T20:25:38.873Z,73.38
2023-03-11T20:28:24.963Z,72.97
2023-03-11T20:31:12.515Z,73.20
2023-03-11T20:33:58.925Z,71.56
2023-03-11T20:36:44.475Z,71.92
2023-03-11T20:39:29.805Z,71.35
2023-03-11T20:42:15.264Z,71.99
2023-03-11T20:45:01.014Z,72.80
2023-03-11T20:47:46.826Z,72.87
2023-03-11T20:50:32.674Z,73.47
2023-03-11T20:53:18.131Z,74.27
2023-03-11T20:56:09.549Z,75.47
2023-03-11T20:58:56.466Z,75.55
2023-03-11T21:01:42.180Z,76.11
2023-03-11T21:04:27.986Z,76.02
2023-03-11T21:07:14.292Z,76.32
2023-03-11T21:09:59.754Z,76.34
2023-03-11T21:12:45.203Z,77.12
2023-03-11T21:15:35.293Z,77.94
2023-03-11T21:18:21.221Z,77.98
2023-03-11T21:21:08.492Z,78.69
2023-03-11T21:23:54.238Z,78.25
2023-03-11T21:26:39.764Z,78.61
2023-03-11T21:29:25.143Z,79.16
2023-03-11T21:32:11.245Z,80.16
2023-03-11T21:35:01.585Z,80.08
2023-03-11T21:37:47.514Z,81.31
2023-03-11T21:40:33.486Z,81.32
2023-03-11T21:43:20.956Z,81.43
2023-03-11T21:46:07.590Z,81.88
2023-03-11T21:48:53.752Z,81.88
2023-03-11T21:51:39.893Z,82.54
2023-03-11T21:54:26.221Z,82.34
2023-03-11T21:57:12.228Z,82.19
2023-03-11T21:59:57.996Z,82.33
2023-03-11T22:02:44.058Z,81.86
2023-03-11T22:05:30.227Z,82.11
2023-03-11T22:08:15.561Z,81.96
2023-03-11T22:11:01.677Z,81.68
2023-03-11T22:13:48.769Z,80.56
2023-03-11T22:16:35.360Z,80.98
2023-03-11T22:19:21.730Z,80.84
2023-03-11T22:22:07.204Z,80.95
2023-03-11T22:24:52.969Z,80.65
2023-03-11T22:27:40.688Z,80.52
2023-03-11T22:30:26.547Z,80.15
2023-03-11T22:33:12.346Z,80.40
2023-03-11T22:35:59.523Z,80.60
2023-03-11T22:38:45.867Z,80.50
2023-03-11T22:41:32.087Z,81.53
2023-03-11T22:44:17.603Z,81.72
2023-03-11T22:47:03.230Z,82.15
2023-03-11T22:49:48.727Z,82.08
2023-03-11T22:52:34.210Z,82.41
2023-03-11T22:55:19.664Z,82.92
2023-03-11T22:58:04.940Z,82.80
2023-03-11T23:00:50.401Z,82.99
2023-03-11T23:03:36.961Z,82.30
2023-03-11T23:06:22.816Z,82.16
2023-03-11T23:09:08.493Z,83.14
2023-03-11T23:11:54.409Z,81.92
2023-03-11T23:14:44.847Z,82.15
2023-03-11T23:17:30.601Z,81.64
2023-03-11T23:20:17.329Z,81.87
2023-03-11T23:23:03.382Z,81.18
2023-03-11T23:25:48.913Z,81.37
2023-03-11T23:28:34.479Z,81.36
2023-03-11T23:31:22.135Z,81.56
2023-03-11T23:34:08.107Z,81.18
2023-03-11T23:36:53.548Z,81.49
2023-03-11T23:39:39.273Z,81.75
2023-03-11T23:42:26.298Z,81.12
2023-03-11T23:45:11.949Z,80.78
2023-03-11T23:47:57.689Z,80.79
2023-03-11T23:50:47.564Z,80.85
2023-03-11T23:53:33.266Z,80.12
2023-03-11T23:56:19.292Z,78.89
2023-03-11T23:59:04.860Z,79.15
